sensor_id;sensor_type;location;lat;lon;timestamp;temperature;humidity
18450;DHT22;9354;50.194;7.690;2023-12-20T00:00:36;5.40;99.90
18450;DHT22;9354;50.194;7.690;2023-12-20T00:03:04;5.40;99.90
18450;DHT22;9354;50.194;7.690;2023-12-20T00:05:31;5.40;99.90
18450;DHT22;9354;50.194;7.690;2023-12-20T00:07:59;5.40;99.90
18450;DHT22;9354;50.194;7.690;2023-12-20T00:10:26;5.40;99.90
18450;DHT22;9354;50.194;7.690;2023-12-20T00:12:54;5.40;99.90
18450;DHT22;9354;50.194;7.690;2023-12-20T00:15:23;5.50;99.90
18450;DHT22;9354;50.194;7.690;2023-12-20T00:17:50;5.50;99.90
18450;DHT22;9354;50.194;7.690;2023-12-20T00:20:17;5.50;99.90
18450;DHT22;9354;50.194;7.690;2023-12-20T00:22:45;5.50;99.90
18450;DHT22;9354;50.194;7.690;2023-12-20T00:25:12;5.50;99.90
18450;DHT22;9354;50.194;7.690;2023-12-20T00:27:40;5.50;99.90
18450;DHT22;9354;50.194;7.690;2023-12-20T00:30:09;5.50;99.90
18450;DHT22;9354;50.194;7.690;2023-12-20T00:32:38;5.50;99.90
18450;DHT22;9354;50.194;7.690;2023-12-20T00:35:06;5.60;99.90
18450;DHT22;9354;50.194;7.690;2023-12-20T00:37:33;5.50;99.90
18450;DHT22;9354;50.194;7.690;2023-12-20T00:40:00;5.50;99.90
18450;DHT22;9354;50.194;7.690;2023-12-20T00:42:28;5.60;99.90
18450;DHT22;9354;50.194;7.690;2023-12-20T00:44:55;5.60;99.90
18450;DHT22;9354;50.194;7.690;2023-12-20T00:47:23;5.60;99.90
18450;DHT22;9354;50.194;7.690;2023-12-20T00:49:52;5.60;99.90
18450;DHT22;9354;50.194;7.690;2023-12-20T00:52:19;5.60;99.90
18450;DHT22;9354;50.194;7.690;2023-12-20T00:54:48;5.60;99.90
18450;DHT22;9354;50.194;7.690;2023-12-20T00:57:16;5.60;99.90
18450;DHT22;9354;50.194;7.690;2023-12-20T00:59:43;5.60;99.90
18450;DHT22;9354;50.194;7.690;2023-12-20T01:02:10;5.60;99.90
18450;DHT22;9354;50.194;7.690;2023-12-20T01:04:38;5.60;99.90
18450;DHT22;9354;50.194;7.690;2023-12-20T01:07:07;5.60;99.90
18450;DHT22;9354;50.194;7.690;2023-12-20T01:09:34;5.60;99.90
18450;DHT22;9354;50.194;7.690;2023-12-20T01:12:03;5.60;99.90
18450;DHT22;9354;50.194;7.690;2023-12-20T01:14:31;5.60;99.90
18450;DHT22;9354;50.194;7.690;2023-12-20T01:16:59;5.60;99.90
18450;DHT22;9354;50.194;7.690;2023-12-20T01:19:27;5.60;99.90
18450;DHT22;9354;50.194;7.690;2023-12-20T01:21:55;5.60;99.90
18450;DHT22;9354;50.194;7.690;2023-12-20T01:24:24;5.60;99.90
18450;DHT22;9354;50.194;7.690;2023-12-20T01:26:51;5.60;99.90
18450;DHT22;9354;50.194;7.690;2023-12-20T01:29:18;5.60;99.90
18450;DHT22;9354;50.194;7.690;2023-12-20T01:31:46;5.60;99.90
18450;DHT22;9354;50.194;7.690;2023-12-20T01:34:13;5.60;99.90
18450;DHT22;9354;50.194;7.690;2023-12-20T01:36:40;5.60;99.90
18450;DHT22;9354;50.194;7.690;2023-12-20T01:39:08;5.60;99.90
18450;DHT22;9354;50.194;7.690;2023-12-20T01:41:37;5.60;99.90
18450;DHT22;9354;50.194;7.690;2023-12-20T01:44:04;5.70;99.90
18450;DHT22;9354;50.194;7.690;2023-12-20T01:46:31;5.60;99.90
18450;DHT22;9354;50.194;7.690;2023-12-20T01:48:59;5.60;99.90
18450;DHT22;9354;50.194;7.690;2023-12-20T01:51:27;5.60;99.90
18450;DHT22;9354;50.194;7.690;2023-12-20T01:53:55;5.60;99.90
18450;DHT22;9354;50.194;7.690;2023-12-20T01:56:23;5.60;99.90
18450;DHT22;9354;50.194;7.690;2023-12-20T01:58:52;5.60;99.90
18450;DHT22;9354;50.194;7.690;2023-12-20T02:01:20;5.70;99.90
18450;DHT22;9354;50.194;7.690;2023-12-20T02:03:48;5.60;99.90
18450;DHT22;9354;50.194;7.690;2023-12-20T02:06:16;5.70;99.90
18450;DHT22;9354;50.194;7.690;2023-12-20T02:08:44;5.70;99.90
18450;DHT22;9354;50.194;7.690;2023-12-20T02:11:12;5.70;99.90
18450;DHT22;9354;50.194;7.690;2023-12-20T02:13:39;5.70;99.90
18450;DHT22;9354;50.194;7.690;2023-12-20T02:16:08;5.70;99.90
18450;DHT22;9354;50.194;7.690;2023-12-20T02:18:35;5.70;99.90
18450;DHT22;9354;50.194;7.690;2023-12-20T02:21:04;5.70;99.90
18450;DHT22;9354;50.194;7.690;2023-12-20T02:23:33;5.70;99.90
18450;DHT22;9354;50.194;7.690;2023-12-20T02:26:00;5.70;99.90
18450;DHT22;9354;50.194;7.690;2023-12-20T02:28:28;5.70;99.90
18450;DHT22;9354;50.194;7.690;2023-12-20T02:30:56;5.70;99.90
18450;DHT22;9354;50.194;7.690;2023-12-20T02:33:23;5.70;99.90
18450;DHT22;9354;50.194;7.690;2023-12-20T02:35:50;5.80;99.90
18450;DHT22;9354;50.194;7.690;2023-12-20T02:38:18;5.70;99.90
18450;DHT22;9354;50.194;7.690;2023-12-20T02:40:47;5.70;99.90
18450;DHT22;9354;50.194;7.690;2023-12-20T02:43:14;5.80;99.90
18450;DHT22;9354;50.194;7.690;2023-12-20T02:45:42;5.80;99.90
18450;DHT22;9354;50.194;7.690;2023-12-20T02:48:09;5.70;99.90
18450;DHT22;9354;50.194;7.690;2023-12-20T02:50:37;5.80;99.90
18450;DHT22;9354;50.194;7.690;2023-12-20T02:53:04;5.80;99.90
18450;DHT22;9354;50.194;7.690;2023-12-20T02:55:31;5.80;99.90
18450;DHT22;9354;50.194;7.690;2023-12-20T02:58:00;5.80;99.90
18450;DHT22;9354;50.194;7.690;2023-12-20T03:00:27;5.80;99.90
18450;DHT22;9354;50.194;7.690;2023-12-20T03:02:55;5.80;99.90
18450;DHT22;9354;50.194;7.690;2023-12-20T03:05:22;5.80;99.90
18450;DHT22;9354;50.194;7.690;2023-12-20T03:07:49;5.80;99.90
18450;DHT22;9354;50.194;7.690;2023-12-20T03:10:18;5.80;99.90
18450;DHT22;9354;50.194;7.690;2023-12-20T03:12:45;5.80;99.90
18450;DHT22;9354;50.194;7.690;2023-12-20T03:15:14;5.80;99.90
18450;DHT22;9354;50.194;7.690;2023-12-20T03:17:42;5.80;99.90
18450;DHT22;9354;50.194;7.690;2023-12-20T03:20:09;5.80;99.90
18450;DHT22;9354;50.194;7.690;2023-12-20T03:22:37;5.80;99.90
18450;DHT22;9354;50.194;7.690;2023-12-20T03:25:05;5.80;99.90
18450;DHT22;9354;50.194;7.690;2023-12-20T03:27:32;5.70;99.90
18450;DHT22;9354;50.194;7.690;2023-12-20T03:29:59;5.80;99.90
18450;DHT22;9354;50.194;7.690;2023-12-20T03:32:28;5.70;99.90
18450;DHT22;9354;50.194;7.690;2023-12-20T03:34:55;5.70;99.90
18450;DHT22;9354;50.194;7.690;2023-12-20T03:37:23;5.70;99.90
18450;DHT22;9354;50.194;7.690;2023-12-20T03:39:51;5.70;99.90
18450;DHT22;9354;50.194;7.690;2023-12-20T03:42:18;5.70;99.90
18450;DHT22;9354;50.194;7.690;2023-12-20T03:44:45;5.70;99.90
18450;DHT22;9354;50.194;7.690;2023-12-20T03:47:13;5.70;99.90
18450;DHT22;9354;50.194;7.690;2023-12-20T03:49:42;5.60;99.90
18450;DHT22;9354;50.194;7.690;2023-12-20T03:52:09;5.60;99.90
18450;DHT22;9354;50.194;7.690;2023-12-20T03:54:36;5.60;99.90
18450;DHT22;9354;50.194;7.690;2023-12-20T03:57:04;5.50;99.90
18450;DHT22;9354;50.194;7.690;2023-12-20T03:59:35;5.50;99.90
18450;DHT22;9354;50.194;7.690;2023-12-20T04:02:03;5.40;99.90
18450;DHT22;9354;50.194;7.690;2023-12-20T04:04:31;5.40;99.90
18450;DHT22;9354;50.194;7.690;2023-12-20T04:06:58;5.30;99.90
18450;DHT22;9354;50.194;7.690;2023-12-20T04:09:26;5.30;99.90
18450;DHT22;9354;50.194;7.690;2023-12-20T04:11:53;5.20;99.90
18450;DHT22;9354;50.194;7.690;2023-12-20T04:14:21;5.20;99.90
18450;DHT22;9354;50.194;7.690;2023-12-20T04:16:48;5.20;99.90
18450;DHT22;9354;50.194;7.690;2023-12-20T04:19:15;5.10;99.90
18450;DHT22;9354;50.194;7.690;2023-12-20T04:21:43;5.10;99.90
18450;DHT22;9354;50.194;7.690;2023-12-20T04:24:11;5.00;99.90
18450;DHT22;9354;50.194;7.690;2023-12-20T04:26:39;5.00;99.90
18450;DHT22;9354;50.194;7.690;2023-12-20T04:29:06;5.00;99.90
18450;DHT22;9354;50.194;7.690;2023-12-20T04:31:34;5.00;99.90
18450;DHT22;9354;50.194;7.690;2023-12-20T04:34:01;5.00;99.90
18450;DHT22;9354;50.194;7.690;2023-12-20T04:36:28;5.00;99.90
18450;DHT22;9354;50.194;7.690;2023-12-20T04:38:56;5.00;99.90
18450;DHT22;9354;50.194;7.690;2023-12-20T04:41:25;5.00;99.90
18450;DHT22;9354;50.194;7.690;2023-12-20T04:43:53;5.00;99.90
18450;DHT22;9354;50.194;7.690;2023-12-20T04:46:21;5.00;99.90
18450;DHT22;9354;50.194;7.690;2023-12-20T04:48:48;5.00;99.90
18450;DHT22;9354;50.194;7.690;2023-12-20T04:51:15;5.00;99.90
18450;DHT22;9354;50.194;7.690;2023-12-20T04:53:43;5.00;99.90
18450;DHT22;9354;50.194;7.690;2023-12-20T04:56:10;5.00;99.90
18450;DHT22;9354;50.194;7.690;2023-12-20T04:58:39;5.00;99.90
18450;DHT22;9354;50.194;7.690;2023-12-20T05:01:06;5.00;99.90
18450;DHT22;9354;50.194;7.690;2023-12-20T05:03:34;5.00;99.90
18450;DHT22;9354;50.194;7.690;2023-12-20T05:06:01;5.00;99.90
18450;DHT22;9354;50.194;7.690;2023-12-20T05:08:29;5.00;99.90
18450;DHT22;9354;50.194;7.690;2023-12-20T05:10:56;5.00;99.90
18450;DHT22;9354;50.194;7.690;2023-12-20T05:13:24;5.00;99.90
18450;DHT22;9354;50.194;7.690;2023-12-20T05:15:53;5.00;99.90
18450;DHT22;9354;50.194;7.690;2023-12-20T05:18:20;4.90;99.90
18450;DHT22;9354;50.194;7.690;2023-12-20T05:20:49;5.00;99.90
18450;DHT22;9354;50.194;7.690;2023-12-20T05:23:17;5.00;99.90
18450;DHT22;9354;50.194;7.690;2023-12-20T05:25:44;5.00;99.90
18450;DHT22;9354;50.194;7.690;2023-12-20T05:28:12;4.90;99.90
18450;DHT22;9354;50.194;7.690;2023-12-20T05:30:39;4.90;99.90
18450;DHT22;9354;50.194;7.690;2023-12-20T05:33:08;4.90;99.90
18450;DHT22;9354;50.194;7.690;2023-12-20T05:35:35;4.90;99.90
18450;DHT22;9354;50.194;7.690;2023-12-20T05:38:03;4.90;99.90
18450;DHT22;9354;50.194;7.690;2023-12-20T05:40:30;4.90;99.90
18450;DHT22;9354;50.194;7.690;2023-12-20T05:42:57;4.90;99.90
18450;DHT22;9354;50.194;7.690;2023-12-20T05:45:25;4.90;99.90
18450;DHT22;9354;50.194;7.690;2023-12-20T05:47:52;4.90;99.90
18450;DHT22;9354;50.194;7.690;2023-12-20T05:50:21;4.90;99.90
18450;DHT22;9354;50.194;7.690;2023-12-20T05:52:48;4.90;99.90
18450;DHT22;9354;50.194;7.690;2023-12-20T05:55:16;4.90;99.90
18450;DHT22;9354;50.194;7.690;2023-12-20T05:57:43;4.90;99.90
18450;DHT22;9354;50.194;7.690;2023-12-20T06:00:12;4.90;99.90
18450;DHT22;9354;50.194;7.690;2023-12-20T06:02:39;4.90;99.90
18450;DHT22;9354;50.194;7.690;2023-12-20T06:05:07;5.00;99.90
18450;DHT22;9354;50.194;7.690;2023-12-20T06:07:36;4.90;99.90
18450;DHT22;9354;50.194;7.690;2023-12-20T06:10:04;4.90;99.90
18450;DHT22;9354;50.194;7.690;2023-12-20T06:12:32;4.90;99.90
18450;DHT22;9354;50.194;7.690;2023-12-20T06:15:02;4.90;99.90
18450;DHT22;9354;50.194;7.690;2023-12-20T06:17:29;4.90;99.90
18450;DHT22;9354;50.194;7.690;2023-12-20T06:19:57;4.90;99.90
18450;DHT22;9354;50.194;7.690;2023-12-20T06:22:24;4.90;99.90
18450;DHT22;9354;50.194;7.690;2023-12-20T06:24:53;4.90;99.90
18450;DHT22;9354;50.194;7.690;2023-12-20T06:27:21;4.90;99.90
18450;DHT22;9354;50.194;7.690;2023-12-20T06:29:48;4.90;99.90
18450;DHT22;9354;50.194;7.690;2023-12-20T06:32:15;4.90;99.90
18450;DHT22;9354;50.194;7.690;2023-12-20T06:34:43;4.90;99.90
18450;DHT22;9354;50.194;7.690;2023-12-20T06:37:10;4.90;99.90
18450;DHT22;9354;50.194;7.690;2023-12-20T06:39:37;4.90;99.90
18450;DHT22;9354;50.194;7.690;2023-12-20T06:42:06;4.90;99.90
18450;DHT22;9354;50.194;7.690;2023-12-20T06:44:34;4.90;99.90
18450;DHT22;9354;50.194;7.690;2023-12-20T06:47:01;4.90;99.90
18450;DHT22;9354;50.194;7.690;2023-12-20T06:49:29;4.90;99.90
18450;DHT22;9354;50.194;7.690;2023-12-20T06:51:56;4.90;99.90
18450;DHT22;9354;50.194;7.690;2023-12-20T06:54:23;4.90;99.90
18450;DHT22;9354;50.194;7.690;2023-12-20T06:56:51;4.90;99.90
18450;DHT22;9354;50.194;7.690;2023-12-20T06:59:19;4.90;99.90
18450;DHT22;9354;50.194;7.690;2023-12-20T07:01:48;4.90;99.90
18450;DHT22;9354;50.194;7.690;2023-12-20T07:04:16;4.90;99.90
18450;DHT22;9354;50.194;7.690;2023-12-20T07:06:46;4.90;99.90
18450;DHT22;9354;50.194;7.690;2023-12-20T07:09:14;4.90;99.90
18450;DHT22;9354;50.194;7.690;2023-12-20T07:11:41;4.80;99.90
18450;DHT22;9354;50.194;7.690;2023-12-20T07:14:08;4.80;99.90
18450;DHT22;9354;50.194;7.690;2023-12-20T07:16:37;4.80;99.90
18450;DHT22;9354;50.194;7.690;2023-12-20T07:19:04;4.80;99.90
18450;DHT22;9354;50.194;7.690;2023-12-20T07:21:32;4.80;99.90
18450;DHT22;9354;50.194;7.690;2023-12-20T07:23:59;4.80;99.90
18450;DHT22;9354;50.194;7.690;2023-12-20T07:26:27;4.70;99.90
18450;DHT22;9354;50.194;7.690;2023-12-20T07:28:54;4.70;99.90
18450;DHT22;9354;50.194;7.690;2023-12-20T07:31:22;4.70;99.90
18450;DHT22;9354;50.194;7.690;2023-12-20T07:33:51;4.70;99.90
18450;DHT22;9354;50.194;7.690;2023-12-20T07:36:19;4.70;99.90
18450;DHT22;9354;50.194;7.690;2023-12-20T07:38:47;4.70;99.90
18450;DHT22;9354;50.194;7.690;2023-12-20T07:41:14;4.70;99.90
18450;DHT22;9354;50.194;7.690;2023-12-20T07:43:43;4.70;99.90
18450;DHT22;9354;50.194;7.690;2023-12-20T07:46:10;4.70;99.90
18450;DHT22;9354;50.194;7.690;2023-12-20T07:48:38;4.70;99.90
18450;DHT22;9354;50.194;7.690;2023-12-20T07:51:06;4.80;99.90
18450;DHT22;9354;50.194;7.690;2023-12-20T07:53:35;4.80;99.90
18450;DHT22;9354;50.194;7.690;2023-12-20T07:56:13;4.80;99.90
18450;DHT22;9354;50.194;7.690;2023-12-20T07:58:41;4.90;99.90
18450;DHT22;9354;50.194;7.690;2023-12-20T08:01:08;4.80;99.90
18450;DHT22;9354;50.194;7.690;2023-12-20T08:03:36;4.90;99.90
18450;DHT22;9354;50.194;7.690;2023-12-20T08:06:04;4.90;99.90
18450;DHT22;9354;50.194;7.690;2023-12-20T08:08:32;4.90;99.90
18450;DHT22;9354;50.194;7.690;2023-12-20T08:11:00;4.90;99.90
18450;DHT22;9354;50.194;7.690;2023-12-20T08:13:28;5.00;99.90
18450;DHT22;9354;50.194;7.690;2023-12-20T08:15:55;4.90;99.90
18450;DHT22;9354;50.194;7.690;2023-12-20T08:18:23;5.00;99.90
18450;DHT22;9354;50.194;7.690;2023-12-20T08:20:50;5.00;99.90
18450;DHT22;9354;50.194;7.690;2023-12-20T08:23:18;5.00;99.90
18450;DHT22;9354;50.194;7.690;2023-12-20T08:25:48;5.00;99.90
18450;DHT22;9354;50.194;7.690;2023-12-20T08:28:15;5.00;99.90
18450;DHT22;9354;50.194;7.690;2023-12-20T08:30:43;5.00;99.90
18450;DHT22;9354;50.194;7.690;2023-12-20T08:33:10;5.10;99.90
18450;DHT22;9354;50.194;7.690;2023-12-20T08:35:39;5.10;99.90
18450;DHT22;9354;50.194;7.690;2023-12-20T08:38:06;5.10;99.90
18450;DHT22;9354;50.194;7.690;2023-12-20T08:40:34;5.10;99.90
18450;DHT22;9354;50.194;7.690;2023-12-20T08:43:03;5.10;99.90
18450;DHT22;9354;50.194;7.690;2023-12-20T08:45:30;5.10;99.90
18450;DHT22;9354;50.194;7.690;2023-12-20T08:47:58;5.10;99.90
18450;DHT22;9354;50.194;7.690;2023-12-20T08:50:26;5.20;99.90
18450;DHT22;9354;50.194;7.690;2023-12-20T08:52:53;5.20;99.90
18450;DHT22;9354;50.194;7.690;2023-12-20T08:55:20;5.20;99.90
18450;DHT22;9354;50.194;7.690;2023-12-20T08:57:48;5.20;99.90
18450;DHT22;9354;50.194;7.690;2023-12-20T09:00:18;5.20;99.90
18450;DHT22;9354;50.194;7.690;2023-12-20T09:02:46;5.20;99.90
18450;DHT22;9354;50.194;7.690;2023-12-20T09:05:14;5.20;99.90
18450;DHT22;9354;50.194;7.690;2023-12-20T09:07:41;5.20;99.90
18450;DHT22;9354;50.194;7.690;2023-12-20T09:10:09;5.20;99.90
18450;DHT22;9354;50.194;7.690;2023-12-20T09:12:35;5.20;99.90
18450;DHT22;9354;50.194;7.690;2023-12-20T09:15:06;5.20;99.90
18450;DHT22;9354;50.194;7.690;2023-12-20T09:17:35;5.30;99.90
18450;DHT22;9354;50.194;7.690;2023-12-20T09:20:03;5.30;99.90
18450;DHT22;9354;50.194;7.690;2023-12-20T09:22:32;5.30;99.90
18450;DHT22;9354;50.194;7.690;2023-12-20T09:25:00;5.30;99.90
18450;DHT22;9354;50.194;7.690;2023-12-20T09:27:28;5.30;99.90
18450;DHT22;9354;50.194;7.690;2023-12-20T09:29:55;5.30;99.90
18450;DHT22;9354;50.194;7.690;2023-12-20T09:32:22;5.30;99.90
18450;DHT22;9354;50.194;7.690;2023-12-20T09:34:51;5.40;99.90
18450;DHT22;9354;50.194;7.690;2023-12-20T09:37:18;5.40;99.90
18450;DHT22;9354;50.194;7.690;2023-12-20T09:39:46;5.40;99.90
18450;DHT22;9354;50.194;7.690;2023-12-20T09:42:17;5.50;99.90
18450;DHT22;9354;50.194;7.690;2023-12-20T09:44:48;5.50;99.90
18450;DHT22;9354;50.194;7.690;2023-12-20T09:47:16;5.50;99.90
18450;DHT22;9354;50.194;7.690;2023-12-20T09:49:47;5.50;99.90
18450;DHT22;9354;50.194;7.690;2023-12-20T09:52:17;5.60;99.90
18450;DHT22;9354;50.194;7.690;2023-12-20T09:54:50;5.60;99.90
18450;DHT22;9354;50.194;7.690;2023-12-20T09:57:18;5.60;99.90
18450;DHT22;9354;50.194;7.690;2023-12-20T09:59:46;5.60;99.90
18450;DHT22;9354;50.194;7.690;2023-12-20T10:02:14;5.70;99.90
18450;DHT22;9354;50.194;7.690;2023-12-20T10:04:46;5.70;99.90
18450;DHT22;9354;50.194;7.690;2023-12-20T10:07:16;5.70;99.90
18450;DHT22;9354;50.194;7.690;2023-12-20T10:09:44;5.80;99.90
18450;DHT22;9354;50.194;7.690;2023-12-20T10:12:12;5.80;99.90
18450;DHT22;9354;50.194;7.690;2023-12-20T10:14:40;5.80;99.90
18450;DHT22;9354;50.194;7.690;2023-12-20T10:17:07;5.80;99.90
18450;DHT22;9354;50.194;7.690;2023-12-20T10:19:34;5.90;99.90
18450;DHT22;9354;50.194;7.690;2023-12-20T10:22:04;5.90;99.90
18450;DHT22;9354;50.194;7.690;2023-12-20T10:24:33;5.90;99.90
18450;DHT22;9354;50.194;7.690;2023-12-20T10:27:04;6.10;99.90
18450;DHT22;9354;50.194;7.690;2023-12-20T10:29:33;6.10;99.90
18450;DHT22;9354;50.194;7.690;2023-12-20T10:32:22;6.20;99.90
18450;DHT22;9354;50.194;7.690;2023-12-20T10:34:50;6.30;99.90
18450;DHT22;9354;50.194;7.690;2023-12-20T10:37:17;6.30;99.90
18450;DHT22;9354;50.194;7.690;2023-12-20T10:39:49;6.40;99.90
18450;DHT22;9354;50.194;7.690;2023-12-20T10:42:17;6.40;99.90
18450;DHT22;9354;50.194;7.690;2023-12-20T10:44:46;6.60;99.90
18450;DHT22;9354;50.194;7.690;2023-12-20T10:47:13;6.90;99.90
18450;DHT22;9354;50.194;7.690;2023-12-20T10:49:42;7.10;99.90
18450;DHT22;9354;50.194;7.690;2023-12-20T10:52:11;7.10;99.90
18450;DHT22;9354;50.194;7.690;2023-12-20T10:54:40;7.10;99.90
18450;DHT22;9354;50.194;7.690;2023-12-20T10:57:09;7.00;99.90
18450;DHT22;9354;50.194;7.690;2023-12-20T10:59:37;6.90;99.90
18450;DHT22;9354;50.194;7.690;2023-12-20T11:02:05;6.80;99.90
18450;DHT22;9354;50.194;7.690;2023-12-20T11:04:39;6.70;99.90
18450;DHT22;9354;50.194;7.690;2023-12-20T11:07:17;6.50;99.90
18450;DHT22;9354;50.194;7.690;2023-12-20T11:09:49;6.40;99.90
18450;DHT22;9354;50.194;7.690;2023-12-20T11:12:28;6.30;99.90
18450;DHT22;9354;50.194;7.690;2023-12-20T11:14:59;6.30;99.90
18450;DHT22;9354;50.194;7.690;2023-12-20T11:17:31;6.20;99.90
18450;DHT22;9354;50.194;7.690;2023-12-20T11:20:09;6.20;99.90
18450;DHT22;9354;50.194;7.690;2023-12-20T11:22:38;6.10;99.90
18450;DHT22;9354;50.194;7.690;2023-12-20T11:25:09;6.10;99.90
18450;DHT22;9354;50.194;7.690;2023-12-20T11:27:41;6.10;99.90
18450;DHT22;9354;50.194;7.690;2023-12-20T11:30:10;6.10;99.90
18450;DHT22;9354;50.194;7.690;2023-12-20T11:32:40;6.10;99.90
18450;DHT22;9354;50.194;7.690;2023-12-20T11:35:18;6.10;99.90
18450;DHT22;9354;50.194;7.690;2023-12-20T11:37:46;6.10;99.90
18450;DHT22;9354;50.194;7.690;2023-12-20T11:40:15;6.10;99.90
18450;DHT22;9354;50.194;7.690;2023-12-20T11:42:45;6.10;99.90
18450;DHT22;9354;50.194;7.690;2023-12-20T11:45:14;6.10;99.90
18450;DHT22;9354;50.194;7.690;2023-12-20T11:47:43;6.20;99.90
18450;DHT22;9354;50.194;7.690;2023-12-20T11:50:11;6.20;99.90
18450;DHT22;9354;50.194;7.690;2023-12-20T11:52:38;6.40;99.90
18450;DHT22;9354;50.194;7.690;2023-12-20T11:55:06;6.60;99.90
18450;DHT22;9354;50.194;7.690;2023-12-20T11:57:34;6.70;99.90
18450;DHT22;9354;50.194;7.690;2023-12-20T12:00:03;6.60;99.90
18450;DHT22;9354;50.194;7.690;2023-12-20T12:02:31;6.60;99.90
18450;DHT22;9354;50.194;7.690;2023-12-20T12:04:59;6.70;99.90
18450;DHT22;9354;50.194;7.690;2023-12-20T12:07:27;6.70;99.90
18450;DHT22;9354;50.194;7.690;2023-12-20T12:09:54;6.80;99.90
18450;DHT22;9354;50.194;7.690;2023-12-20T12:12:22;6.80;99.90
18450;DHT22;9354;50.194;7.690;2023-12-20T12:14:51;6.70;99.90
18450;DHT22;9354;50.194;7.690;2023-12-20T12:17:20;6.60;99.90
18450;DHT22;9354;50.194;7.690;2023-12-20T12:19:47;6.50;99.90
18450;DHT22;9354;50.194;7.690;2023-12-20T12:22:15;6.50;99.90
18450;DHT22;9354;50.194;7.690;2023-12-20T12:24:43;6.40;99.90
18450;DHT22;9354;50.194;7.690;2023-12-20T12:27:12;6.40;99.90
18450;DHT22;9354;50.194;7.690;2023-12-20T12:29:39;6.40;99.90
18450;DHT22;9354;50.194;7.690;2023-12-20T12:32:08;6.50;99.90
18450;DHT22;9354;50.194;7.690;2023-12-20T12:34:37;6.60;99.90
18450;DHT22;9354;50.194;7.690;2023-12-20T12:37:04;6.70;99.90
18450;DHT22;9354;50.194;7.690;2023-12-20T12:39:32;6.80;99.90
18450;DHT22;9354;50.194;7.690;2023-12-20T12:41:59;6.90;99.90
18450;DHT22;9354;50.194;7.690;2023-12-20T12:44:26;7.00;99.90
18450;DHT22;9354;50.194;7.690;2023-12-20T12:46:54;7.10;99.90
18450;DHT22;9354;50.194;7.690;2023-12-20T12:49:22;7.10;99.90
18450;DHT22;9354;50.194;7.690;2023-12-20T12:51:51;7.00;99.90
18450;DHT22;9354;50.194;7.690;2023-12-20T12:54:18;7.00;99.90
18450;DHT22;9354;50.194;7.690;2023-12-20T12:56:46;6.90;99.90
18450;DHT22;9354;50.194;7.690;2023-12-20T12:59:13;6.90;99.90
18450;DHT22;9354;50.194;7.690;2023-12-20T13:01:41;6.90;99.90
18450;DHT22;9354;50.194;7.690;2023-12-20T13:04:08;6.80;99.90
18450;DHT22;9354;50.194;7.690;2023-12-20T13:06:36;6.80;99.90
18450;DHT22;9354;50.194;7.690;2023-12-20T13:09:06;6.80;99.90
18450;DHT22;9354;50.194;7.690;2023-12-20T13:11:35;6.70;99.90
18450;DHT22;9354;50.194;7.690;2023-12-20T13:14:03;6.70;99.90
18450;DHT22;9354;50.194;7.690;2023-12-20T13:16:30;6.70;99.90
18450;DHT22;9354;50.194;7.690;2023-12-20T13:18:58;6.80;99.90
18450;DHT22;9354;50.194;7.690;2023-12-20T13:21:26;6.80;99.90
18450;DHT22;9354;50.194;7.690;2023-12-20T13:23:53;6.90;99.90
18450;DHT22;9354;50.194;7.690;2023-12-20T13:26:22;6.90;99.90
18450;DHT22;9354;50.194;7.690;2023-12-20T13:28:49;7.00;99.90
18450;DHT22;9354;50.194;7.690;2023-12-20T13:31:17;7.00;99.90
18450;DHT22;9354;50.194;7.690;2023-12-20T13:33:44;7.10;99.90
18450;DHT22;9354;50.194;7.690;2023-12-20T13:36:12;7.10;99.90
18450;DHT22;9354;50.194;7.690;2023-12-20T13:38:39;7.10;99.90
18450;DHT22;9354;50.194;7.690;2023-12-20T13:41:07;7.00;99.90
18450;DHT22;9354;50.194;7.690;2023-12-20T13:43:35;6.90;99.90
18450;DHT22;9354;50.194;7.690;2023-12-20T13:46:03;6.90;99.90
18450;DHT22;9354;50.194;7.690;2023-12-20T13:48:30;6.80;99.90
18450;DHT22;9354;50.194;7.690;2023-12-20T13:50:58;6.70;99.90
18450;DHT22;9354;50.194;7.690;2023-12-20T13:53:26;6.60;99.90
18450;DHT22;9354;50.194;7.690;2023-12-20T13:55:54;6.60;99.90
18450;DHT22;9354;50.194;7.690;2023-12-20T13:58:21;6.50;99.90
18450;DHT22;9354;50.194;7.690;2023-12-20T14:00:50;6.40;99.90
18450;DHT22;9354;50.194;7.690;2023-12-20T14:03:18;6.40;99.90
18450;DHT22;9354;50.194;7.690;2023-12-20T14:05:45;6.40;99.90
18450;DHT22;9354;50.194;7.690;2023-12-20T14:08:13;6.40;99.90
18450;DHT22;9354;50.194;7.690;2023-12-20T14:10:40;6.40;99.90
18450;DHT22;9354;50.194;7.690;2023-12-20T14:13:07;6.40;99.90
18450;DHT22;9354;50.194;7.690;2023-12-20T14:15:35;6.40;99.90
18450;DHT22;9354;50.194;7.690;2023-12-20T14:18:05;6.40;99.90
18450;DHT22;9354;50.194;7.690;2023-12-20T14:20:34;6.40;99.90
18450;DHT22;9354;50.194;7.690;2023-12-20T14:23:01;6.40;99.90
18450;DHT22;9354;50.194;7.690;2023-12-20T14:25:28;6.30;99.90
18450;DHT22;9354;50.194;7.690;2023-12-20T14:27:57;6.30;99.90
18450;DHT22;9354;50.194;7.690;2023-12-20T14:30:25;6.30;99.90
18450;DHT22;9354;50.194;7.690;2023-12-20T14:32:53;6.30;99.90
18450;DHT22;9354;50.194;7.690;2023-12-20T14:35:21;6.30;99.90
18450;DHT22;9354;50.194;7.690;2023-12-20T14:37:49;6.30;99.90
18450;DHT22;9354;50.194;7.690;2023-12-20T14:40:16;6.30;99.90
18450;DHT22;9354;50.194;7.690;2023-12-20T14:42:44;6.20;99.90
18450;DHT22;9354;50.194;7.690;2023-12-20T14:45:11;6.20;99.90
18450;DHT22;9354;50.194;7.690;2023-12-20T14:47:40;6.20;99.90
18450;DHT22;9354;50.194;7.690;2023-12-20T14:50:08;6.20;99.90
18450;DHT22;9354;50.194;7.690;2023-12-20T14:52:38;6.20;99.90
18450;DHT22;9354;50.194;7.690;2023-12-20T14:55:05;6.20;99.90
18450;DHT22;9354;50.194;7.690;2023-12-20T14:57:33;6.20;99.90
18450;DHT22;9354;50.194;7.690;2023-12-20T15:00:00;6.10;99.90
18450;DHT22;9354;50.194;7.690;2023-12-20T15:02:28;6.10;99.90
18450;DHT22;9354;50.194;7.690;2023-12-20T15:04:55;6.10;99.90
18450;DHT22;9354;50.194;7.690;2023-12-20T15:07:23;6.10;99.90
18450;DHT22;9354;50.194;7.690;2023-12-20T15:09:51;6.10;99.90
18450;DHT22;9354;50.194;7.690;2023-12-20T15:12:19;6.10;99.90
18450;DHT22;9354;50.194;7.690;2023-12-20T15:14:47;6.10;99.90
18450;DHT22;9354;50.194;7.690;2023-12-20T15:17:14;6.00;99.90
18450;DHT22;9354;50.194;7.690;2023-12-20T15:19:41;6.00;99.90
18450;DHT22;9354;50.194;7.690;2023-12-20T15:22:09;6.00;99.90
18450;DHT22;9354;50.194;7.690;2023-12-20T15:24:37;6.00;99.90
18450;DHT22;9354;50.194;7.690;2023-12-20T15:27:07;6.10;99.90
18450;DHT22;9354;50.194;7.690;2023-12-20T15:29:36;6.10;99.90
18450;DHT22;9354;50.194;7.690;2023-12-20T15:32:04;6.00;99.90
18450;DHT22;9354;50.194;7.690;2023-12-20T15:34:31;6.00;99.90
18450;DHT22;9354;50.194;7.690;2023-12-20T15:36:59;6.10;99.90
18450;DHT22;9354;50.194;7.690;2023-12-20T15:39:26;6.00;99.90
18450;DHT22;9354;50.194;7.690;2023-12-20T15:41:54;6.10;99.90
18450;DHT22;9354;50.194;7.690;2023-12-20T15:44:22;6.00;99.90
18450;DHT22;9354;50.194;7.690;2023-12-20T15:46:51;6.10;99.90
18450;DHT22;9354;50.194;7.690;2023-12-20T15:49:18;6.00;99.90
18450;DHT22;9354;50.194;7.690;2023-12-20T15:51:46;6.10;99.90
18450;DHT22;9354;50.194;7.690;2023-12-20T15:54:13;6.00;99.90
18450;DHT22;9354;50.194;7.690;2023-12-20T15:56:40;6.00;99.90
18450;DHT22;9354;50.194;7.690;2023-12-20T15:59:10;6.00;99.90
18450;DHT22;9354;50.194;7.690;2023-12-20T16:01:39;6.00;99.90
18450;DHT22;9354;50.194;7.690;2023-12-20T16:04:06;6.00;99.90
18450;DHT22;9354;50.194;7.690;2023-12-20T16:06:34;6.00;99.90